Time;durP1;ratioP1;P1;durP2;ratioP2;P2;SDS_P1;SDS_P2;PMS_P1;PMS_P2;Temp;Humidity;BMP_temperature;BMP_pressure;BME280_temperature;BME280_humidity;BME280_pressure;Samples;Min_cycle;Max_cycle;Signal;HPM_P1;HPM_P2
2022/09/02 00:00:10;;;;;;;;;;;;;;;;;;5046438;28;19992;-45
2022/09/02 00:02:35;;;;;;;;;;;;;;;;;;5045087;28;19963;-45
2022/09/02 00:05:01;;;;;;;;;;;;;;;;;;5046527;28;19916;-44
2022/09/02 00:07:27;;;;;;;;;;;;;;;;;;5047042;28;19966;-45
2022/09/02 00:09:53;;;;;;;;;;;;;;;;;;5047190;28;19944;-45
2022/09/02 00:12:19;;;;;;;;;;;;;;;;;;5046432;28;19912;-46
2022/09/02 00:14:45;;;;;;;;;;;;;;;;;;5046204;28;19915;-46
2022/09/02 00:17:11;;;;;;;;;;;;;;;;;;5045586;28;20074;-44
2022/09/02 00:19:37;;;;;;;;;;;;;;;;;;5045323;28;19916;-47
2022/09/02 00:22:03;;;;;;;;;;;;;;;;;;5046255;28;19912;-45
2022/09/02 00:24:29;;;;;;;;;;;;;;;;;;5045977;28;20016;-46
2022/09/02 00:26:55;;;;;;;;;;;;;;;;;;5046812;28;19909;-45
2022/09/02 00:29:21;;;;;;;;;;;;;;;;;;5046366;28;19920;-45
2022/09/02 00:31:47;;;;;;;;;;;;;;;;;;5045809;28;20047;-45
2022/09/02 00:34:13;;;;;;;;;;;;;;;;;;5044452;28;19920;-45
2022/09/02 00:36:39;;;;;;;;;;;;;;;;;;5046049;28;19915;-44
2022/09/02 00:39:06;;;;;;;;;;;;;;;;;;5046262;28;19908;-45
2022/09/02 00:41:32;;;;;;;;;;;;;;;;;;5046024;28;19967;-46
2022/09/02 00:43:58;;;;;;;;;;;;;;;;;;5045887;28;19921;-45
2022/09/02 00:46:24;;;;;;;;;;;;;;;;;;5046694;28;19991;-47
2022/09/02 00:48:50;;;;;;;;;;;;;;;;;;5045186;28;20036;-47
2022/09/02 00:51:16;;;;;;;;;;;;;;;;;;5044609;28;19944;-47
2022/09/02 00:53:43;;;;;;;;;;;;;;;;;;5045964;28;19982;-47
2022/09/02 00:56:09;;;;;;;;;;;;;;;;;;5046417;28;19916;-45
2022/09/02 00:58:35;;;;;;;;;;;;;;;;;;5047343;28;19939;-47
2022/09/02 01:01:01;;;;;;;;;;;;;;;;;;5048733;28;19917;-48
2022/09/02 01:03:27;;;;;;;;;;;;;;;;;;5049576;28;20088;-45
2022/09/02 01:05:53;;;;;;;;;;;;;;;;;;5049495;28;19908;-47
2022/09/02 01:08:19;;;;;;;;;;;;;;;;;;5048943;28;19913;-44
2022/09/02 01:10:45;;;;;;;;;;;;;;;;;;5047633;28;19916;-45
2022/09/02 01:13:11;;;;;;;;;;;;;;;;;;5048958;28;20350;-45
2022/09/02 01:15:37;;;;;;;;;;;;;;;;;;5046883;28;19924;-45
2022/09/02 01:18:03;;;;;;;;;;;;;;;;;;5048410;28;19913;-44
2022/09/02 01:20:29;;;;;;;;;;;;;;;;;;5047927;28;19986;-44
2022/09/02 01:22:56;;;;;;;;;;;;;;;;;;5048141;28;19909;-43
2022/09/02 01:25:21;;;;;;;;;;;;;;;;;;5047095;28;20104;-44
2022/09/02 01:27:47;;;;;;;;;;;;;;;;;;5047184;28;19920;-44
2022/09/02 01:30:13;;;;;;;;;;;;;;;;;;5047838;28;19999;-45
2022/09/02 01:32:39;;;;;;;;;;;;;;;;;;5049331;28;19916;-44
2022/09/02 01:35:05;;;;;;;;;;;;;;;;;;5048224;28;19921;-45
2022/09/02 01:37:31;;;;;;;;;;;;;;;;;;5048728;28;19915;-45
2022/09/02 01:39:57;;;;;;;;;;;;;;;;;;5048515;28;19913;-44
2022/09/02 01:42:23;;;;;;;;;;;;;;;;;;5047683;28;19920;-45
2022/09/02 01:44:49;;;;;;;;;;;;;;;;;;5048370;28;19919;-45
2022/09/02 01:47:15;;;;;;;;;;;;;;;;;;5048857;28;20098;-45
2022/09/02 01:49:41;;;;;;;;;;;;;;;;;;5048412;28;20011;-44
2022/09/02 01:52:07;;;;;;;;;;;;;;;;;;5049355;28;19919;-46
2022/09/02 01:54:33;;;;;;;;;;;;;;;;;;5048024;28;19916;-47
2022/09/02 01:56:59;;;;;;;;;;;;;;;;;;5048496;28;19955;-46
2022/09/02 01:59:25;;;;;;;;;;;;;;;;;;5048243;28;19916;-45
2022/09/02 02:01:51;;;;;;;;;;;;;;;;;;5048196;28;19909;-45
2022/09/02 02:04:17;;;;;;;;;;;;;;;;;;5047722;28;19912;-45
2022/09/02 02:06:43;;;;;;;;;;;;;;;;;;5048239;28;20016;-43
2022/09/02 02:09:09;;;;;;;;;;;;;;;;;;5048267;28;19912;-44
2022/09/02 02:11:35;;;;;;;;;;;;;;;;;;5046710;28;19987;-44
2022/09/02 02:14:01;;;;;;;;;;;;;;;;;;5048110;28;19931;-44
2022/09/02 02:16:27;;;;;;;;;;;;;;;;;;5048091;28;19909;-45
2022/09/02 02:18:53;;;;;;;;;;;;;;;;;;5030082;28;19986;-43
2022/09/02 02:21:18;;;;;;;;;;;;;;;;;;5048168;28;19909;-45
2022/09/02 02:23:44;;;;;;;;;;;;;;;;;;5047393;28;19917;-45
2022/09/02 02:26:10;;;;;;;;;;;;;;;;;;5048050;28;19913;-45
2022/09/02 02:28:36;;;;;;;;;;;;;;;;;;5047541;28;19919;-44
2022/09/02 02:31:02;;;;;;;;;;;;;;;;;;5047693;28;19963;-44
2022/09/02 02:33:28;;;;;;;;;;;;;;;;;;5047617;28;19920;-46
2022/09/02 02:35:54;;;;;;;;;;;;;;;;;;5047735;28;19990;-45
2022/09/02 02:38:20;;;;;;;;;;;;;;;;;;5047540;28;19909;-44
2022/09/02 02:40:46;;;;;;;;;;;;;;;;;;5046396;28;19959;-44
2022/09/02 02:43:12;;;;;;;;;;;;;;;;;;5047871;28;19921;-43
2022/09/02 02:45:38;;;;;;;;;;;;;;;;;;5047723;28;19913;-45
2022/09/02 02:48:04;;;;;;;;;;;;;;;;;;5047681;28;20421;-45
2022/09/02 02:50:30;;;;;;;;;;;;;;;;;;5047119;28;19944;-44
2022/09/02 02:52:56;;;;;;;;;;;;;;;;;;5047359;28;20443;-45
2022/09/02 02:55:22;;;;;;;;;;;;;;;;;;5046680;28;19954;-45
2022/09/02 02:57:48;;;;;;;;;;;;;;;;;;5047033;28;19916;-45
2022/09/02 03:00:14;;;;;;;;;;;;;;;;;;5047227;28;19913;-59
2022/09/02 03:02:40;;;;;;;;;;;;;;;;;;5047608;28;19916;-59
2022/09/02 03:05:06;;;;;;;;;;;;;;;;;;5047156;28;20019;-59
2022/09/02 03:07:31;;;;;;;;;;;;;;;;;;5047062;28;20473;-58
2022/09/02 03:09:57;;;;;;;;;;;;;;;;;;5046329;28;19920;-58
2022/09/02 03:12:24;;;;;;;;;;;;;;;;;;5047113;28;19921;-58
2022/09/02 03:14:50;;;;;;;;;;;;;;;;;;5046468;28;19912;-58
2022/09/02 03:17:16;;;;;;;;;;;;;;;;;;5047089;28;19921;-58
2022/09/02 03:19:42;;;;;;;;;;;;;;;;;;5047352;28;19931;-58
2022/09/02 03:22:09;;;;;;;;;;;;;;;;;;5045787;28;19974;-58
2022/09/02 03:24:35;;;;;;;;;;;;;;;;;;5046605;28;19935;-58
2022/09/02 03:27:01;;;;;;;;;;;;;;;;;;5047139;28;19905;-59
2022/09/02 03:29:27;;;;;;;;;;;;;;;;;;5046811;28;19935;-58
2022/09/02 03:31:53;;;;;;;;;;;;;;;;;;5046915;28;19924;-59
2022/09/02 03:34:19;;;;;;;;;;;;;;;;;;5046717;28;19912;-59
2022/09/02 03:36:45;;;;;;;;;;;;;;;;;;5045666;28;19967;-59
2022/09/02 03:39:11;;;;;;;;;;;;;;;;;;5047404;28;19913;-58
2022/09/02 03:41:39;;;;;;;;;;;;;;;;;;5047043;28;19944;-58
2022/09/02 03:44:05;;;;;;;;;;;;;;;;;;5046274;28;20003;-59
2022/09/02 03:46:31;;;;;;;;;;;;;;;;;;5046270;28;19996;-58
2022/09/02 03:48:57;;;;;;;;;;;;;;;;;;5046374;28;19908;-58
2022/09/02 03:51:23;;;;;;;;;;;;;;;;;;5045793;28;19917;-58
2022/09/02 03:53:49;;;;;;;;;;;;;;;;;;5046295;28;19979;-58
2022/09/02 03:56:15;;;;;;;;;;;;;;;;;;5046681;28;19928;-58
2022/09/02 03:58:41;;;;;;;;;;;;;;;;;;5046770;28;19924;-58
2022/09/02 04:01:07;;;;;;;;;;;;;;;;;;5046789;28;19913;-58
2022/09/02 04:03:33;;;;;;;;;;;;;;;;;;5046261;28;20156;-59
2022/09/02 04:05:59;;;;;;;;;;;;;;;;;;5045317;28;20016;-59
2022/09/02 04:08:25;;;;;;;;;;;;;;;;;;5046408;28;19939;-58
2022/09/02 04:10:51;;;;;;;;;;;;;;;;;;5046065;28;19913;-59
2022/09/02 04:13:17;;;;;;;;;;;;;;;;;;5046207;28;19917;-59
2022/09/02 04:15:43;;;;;;;;;;;;;;;;;;5046043;28;19909;-59
2022/09/02 04:18:09;;;;;;;;;;;;;;;;;;5047078;28;19909;-58
2022/09/02 04:20:35;;;;;;;;;;;;;;;;;;5045154;28;19917;-58
2022/09/02 04:23:02;;;;;;;;;;;;;;;;;;5046233;28;19997;-59
2022/09/02 04:25:28;;;;;;;;;;;;;;;;;;5045267;28;19924;-58
2022/09/02 04:27:54;;;;;;;;;;;;;;;;;;5046043;28;20315;-58
2022/09/02 04:30:20;;;;;;;;;;;;;;;;;;5045316;28;19924;-58
2022/09/02 04:32:46;;;;;;;;;;;;;;;;;;5046435;28;19916;-59
2022/09/02 04:35:12;;;;;;;;;;;;;;;;;;5049312;28;20299;-59
2022/09/02 04:37:38;;;;;;;;;;;;;;;;;;5049509;28;19952;-58
2022/09/02 04:40:04;;;;;;;;;;;;;;;;;;5049978;28;20003;-58
2022/09/02 04:42:29;;;;;;;;;;;;;;;;;;5049630;28;19909;-58
2022/09/02 04:44:56;;;;;;;;;;;;;;;;;;5049695;28;19924;-58
2022/09/02 04:47:22;;;;;;;;;;;;;;;;;;5049703;28;19982;-58
2022/09/02 04:49:48;;;;;;;;;;;;;;;;;;5049394;28;20368;-59
2022/09/02 04:52:15;;;;;;;;;;;;;;;;;;5049146;28;19924;-58
2022/09/02 04:54:41;;;;;;;;;;;;;;;;;;5049967;28;19939;-58
2022/09/02 04:57:07;;;;;;;;;;;;;;;;;;5049538;28;19913;-58
2022/09/02 04:59:35;;;;;;;;;;;;;;;;;;5049316;28;19913;-58
2022/09/02 05:02:01;;;;;;;;;;;;;;;;;;5049347;28;19913;-58
2022/09/02 05:04:27;;;;;;;;;;;;;;;;;;5048669;28;19962;-58
2022/09/02 05:06:53;;;;;;;;;;;;;;;;;;5049253;28;19952;-58
2022/09/02 05:09:20;;;;;;;;;;;;;;;;;;5049330;28;19917;-58
2022/09/02 05:11:47;;;;;;;;;;;;;;;;;;5049004;28;19990;-58
2022/09/02 05:14:15;;;;;;;;;;;;;;;;;;5047164;28;19913;-59
2022/09/02 05:16:41;;;;;;;;;;;;;;;;;;5049392;28;19944;-58
2022/09/02 05:19:09;;;;;;;;;;;;;;;;;;5049425;28;19913;-58
2022/09/02 05:21:34;;;;;;;;;;;;;;;;;;5048740;28;19913;-58
2022/09/02 05:24:00;;;;;;;;;;;;;;;;;;5049024;28;19917;-58
2022/09/02 05:26:26;;;;;;;;;;;;;;;;;;5048938;28;19917;-58
2022/09/02 05:28:52;;;;;;;;;;;;;;;;;;5047783;28;20040;-59
2022/09/02 05:31:18;;;;;;;;;;;;;;;;;;5048844;28;19920;-58
2022/09/02 05:33:44;;;;;;;;;;;;;;;;;;5047773;28;19917;-59
2022/09/02 05:36:11;;;;;;;;;;;;;;;;;;5049424;28;19909;-58
2022/09/02 05:38:37;;;;;;;;;;;;;;;;;;5048954;28;19923;-58
2022/09/02 05:41:06;;;;;;;;;;;;;;;;;;5047098;28;19913;-59
2022/09/02 05:43:33;;;;;;;;;;;;;;;;;;5048124;28;19921;-59
2022/09/02 05:45:59;;;;;;;;;;;;;;;;;;5042247;28;19995;-59
2022/09/02 05:51:09;;;;;;;;;;;;;;;;;;5049093;28;19927;-58
2022/09/02 05:53:35;;;;;;;;;;;;;;;;;;5048346;28;20011;-58
2022/09/02 05:56:01;;;;;;;;;;;;;;;;;;5048306;28;19951;-58
2022/09/02 05:58:27;;;;;;;;;;;;;;;;;;5047383;28;19923;-59
2022/09/02 06:00:53;;;;;;;;;;;;;;;;;;5048356;28;19916;-58
2022/09/02 06:03:19;;;;;;;;;;;;;;;;;;5044990;28;19923;-58
2022/09/02 06:05:45;;;;;;;;;;;;;;;;;;5045529;28;19983;-59
2022/09/02 06:08:11;;;;;;;;;;;;;;;;;;5049024;28;19917;-58
2022/09/02 06:10:37;;;;;;;;;;;;;;;;;;5047647;28;20287;-58
2022/09/02 06:13:03;;;;;;;;;;;;;;;;;;5048310;28;19916;-58
2022/09/02 06:15:29;;;;;;;;;;;;;;;;;;5043572;28;19948;-58
2022/09/02 06:17:58;;;;;;;;;;;;;;;;;;5046427;28;19917;-58
2022/09/02 06:20:24;;;;;;;;;;;;;;;;;;5047081;28;20341;-58
2022/09/02 06:22:50;;;;;;;;;;;;;;;;;;5048573;28;19920;-58
2022/09/02 06:25:19;;;;;;;;;;;;;;;;;;5042631;28;19912;-58
2022/09/02 06:27:45;;;;;;;;;;;;;;;;;;5045849;28;19917;-59
2022/09/02 06:30:11;;;;;;;;;;;;;;;;;;5042664;28;19940;-58
2022/09/02 06:32:37;;;;;;;;;;;;;;;;;;5047349;28;19944;-58
2022/09/02 06:35:03;;;;;;;;;;;;;;;;;;5046624;28;19912;-58
2022/09/02 06:37:29;;;;;;;;;;;;;;;;;;5048115;28;19924;-59
2022/09/02 06:39:55;;;;;;;;;;;;;;;;;;5044557;28;19940;-59
2022/09/02 06:42:21;;;;;;;;;;;;;;;;;;5047039;28;20657;-58
2022/09/02 06:44:47;;;;;;;;;;;;;;;;;;5043346;28;19955;-58
2022/09/02 06:47:13;;;;;;;;;;;;;;;;;;5047666;28;19916;-58
2022/09/02 06:49:39;;;;;;;;;;;;;;;;;;5048638;28;19917;-58
2022/09/02 06:52:05;;;;;;;;;;;;;;;;;;5046457;28;19923;-58
2022/09/02 06:54:31;;;;;;;;;;;;;;;;;;5047053;28;20380;-58
2022/09/02 06:56:57;;;;;;;;;;;;;;;;;;5046795;28;19959;-58
2022/09/02 06:59:23;;;;;;;;;;;;;;;;;;5047255;28;20326;-58
2022/09/02 07:01:49;;;;;;;;;;;;;;;;;;5046811;28;20016;-59
2022/09/02 07:07:00;;;;;;;;;;;;;;;;;;5033558;28;21378;-59
2022/09/02 07:09:32;;;;;;;;;;;;;;;;;;5009309;28;19921;-59
2022/09/02 07:11:58;;;;;;;;;;;;;;;;;;5030221;28;19916;-59
2022/09/02 07:14:26;;;;;;;;;;;;;;;;;;5038938;28;19939;-58
2022/09/02 07:16:52;;;;;;;;;;;;;;;;;;5043667;28;20472;-58
2022/09/02 07:19:18;;;;;;;;;;;;;;;;;;5026820;28;19951;-59
2022/09/02 07:21:44;;;;;;;;;;;;;;;;;;5034087;28;19940;-59
2022/09/02 07:24:10;;;;;;;;;;;;;;;;;;5044412;28;19966;-60
2022/09/02 07:26:36;;;;;;;;;;;;;;;;;;5039312;28;19908;-59
2022/09/02 07:29:02;;;;;;;;;;;;;;;;;;5046464;28;19924;-59
2022/09/02 07:31:29;;;;;;;;;;;;;;;;;;5046494;28;19913;-59
2022/09/02 07:33:58;;;;;;;;;;;;;;;;;;5045727;28;19908;-59
2022/09/02 07:36:24;;;;;;;;;;;;;;;;;;5046649;28;19909;-59
2022/09/02 07:38:50;;;;;;;;;;;;;;;;;;5045672;28;19913;-59
2022/09/02 07:41:16;;;;;;;;;;;;;;;;;;5046906;28;19912;-59
2022/09/02 07:43:42;;;;;;;;;;;;;;;;;;5046035;28;19917;-59
2022/09/02 07:46:08;;;;;;;;;;;;;;;;;;5046614;28;19923;-59
2022/09/02 07:48:34;;;;;;;;;;;;;;;;;;5046441;28;19962;-59
2022/09/02 07:51:00;;;;;;;;;;;;;;;;;;5046482;28;19920;-59
2022/09/02 07:53:26;;;;;;;;;;;;;;;;;;5044875;28;19920;-59
2022/09/02 07:55:52;;;;;;;;;;;;;;;;;;5045813;28;19939;-59
2022/09/02 07:58:19;;;;;;;;;;;;;;;;;;5046543;28;19912;-59
2022/09/02 08:00:45;;;;;;;;;;;;;;;;;;5042585;28;19913;-59
2022/09/02 08:03:11;;;;;;;;;;;;;;;;;;5046893;28;19924;-59
2022/09/02 08:05:37;;;;;;;;;;;;;;;;;;5046702;28;19913;-59
2022/09/02 08:08:03;;;;;;;;;;;;;;;;;;5047593;28;19909;-59
2022/09/02 08:10:29;;;;;;;;;;;;;;;;;;5050514;28;19919;-59
2022/09/02 08:12:56;;;;;;;;;;;;;;;;;;5049462;28;19909;-59
2022/09/02 08:15:22;;;;;;;;;;;;;;;;;;5050394;28;20003;-59
2022/09/02 08:17:48;;;;;;;;;;;;;;;;;;5050175;28;20004;-59
2022/09/02 08:20:13;;;;;;;;;;;;;;;;;;5050455;28;19909;-59
2022/09/02 08:22:39;;;;;;;;;;;;;;;;;;5049933;28;19916;-59
2022/09/02 08:25:06;;;;;;;;;;;;;;;;;;5050379;28;19952;-59
2022/09/02 08:27:32;;;;;;;;;;;;;;;;;;5049981;28;20556;-59
2022/09/02 08:30:00;;;;;;;;;;;;;;;;;;5047908;28;19917;-59
2022/09/02 08:32:26;;;;;;;;;;;;;;;;;;5050304;28;19916;-59
2022/09/02 08:34:51;;;;;;;;;;;;;;;;;;5049785;28;19916;-59
2022/09/02 08:37:18;;;;;;;;;;;;;;;;;;5050064;28;19928;-59
2022/09/02 08:39:43;;;;;;;;;;;;;;;;;;5048959;28;20281;-59
2022/09/02 08:42:09;;;;;;;;;;;;;;;;;;5050278;28;19919;-59
2022/09/02 08:44:35;;;;;;;;;;;;;;;;;;5049523;28;19917;-59
2022/09/02 08:47:01;;;;;;;;;;;;;;;;;;5048976;28;19927;-59
2022/09/02 08:49:27;;;;;;;;;;;;;;;;;;5049763;28;20035;-59
2022/09/02 08:51:55;;;;;;;;;;;;;;;;;;5049862;28;19917;-59
2022/09/02 08:54:21;;;;;;;;;;;;;;;;;;5048830;28;19916;-59
2022/09/02 08:56:50;;;;;;;;;;;;;;;;;;5048799;28;19917;-59
2022/09/02 08:59:18;;;;;;;;;;;;;;;;;;5049609;28;19913;-60
2022/09/02 09:01:45;;;;;;;;;;;;;;;;;;5048428;28;19983;-59
2022/09/02 09:04:10;;;;;;;;;;;;;;;;;;5050233;28;19916;-59
2022/09/02 09:06:37;;;;;;;;;;;;;;;;;;5048668;28;19916;-59
2022/09/02 09:09:03;;;;;;;;;;;;;;;;;;5049453;28;20295;-59
2022/09/02 09:11:29;;;;;;;;;;;;;;;;;;5049167;28;19919;-59
2022/09/02 09:13:55;;;;;;;;;;;;;;;;;;5049259;28;20003;-59
2022/09/02 09:16:20;;;;;;;;;;;;;;;;;;5048816;28;19959;-59
2022/09/02 09:18:46;;;;;;;;;;;;;;;;;;5049089;28;19912;-59
2022/09/02 09:21:13;;;;;;;;;;;;;;;;;;5049466;28;20070;-59
2022/09/02 09:23:39;;;;;;;;;;;;;;;;;;5049396;28;20299;-59
2022/09/02 09:26:05;;;;;;;;;;;;;;;;;;5047462;28;19913;-60
2022/09/02 09:28:31;;;;;;;;;;;;;;;;;;5042031;28;19913;-59
2022/09/02 09:30:57;;;;;;;;;;;;;;;;;;5047114;28;19920;-59
2022/09/02 09:33:23;;;;;;;;;;;;;;;;;;5047254;28;20031;-59
2022/09/02 09:35:49;;;;;;;;;;;;;;;;;;5043741;28;20011;-59
2022/09/02 09:38:15;;;;;;;;;;;;;;;;;;5042509;28;19927;-59
2022/09/02 09:40:41;;;;;;;;;;;;;;;;;;5046406;28;19916;-59
2022/09/02 09:43:12;;;;;;;;;;;;;;;;;;5049265;28;19921;-59
2022/09/02 09:45:37;;;;;;;;;;;;;;;;;;5046525;28;19920;-59
2022/09/02 09:48:03;;;;;;;;;;;;;;;;;;5048162;28;20403;-59
2022/09/02 09:50:29;;;;;;;;;;;;;;;;;;5046596;28;19960;-59
2022/09/02 09:52:55;;;;;;;;;;;;;;;;;;5048516;28;19909;-59
2022/09/02 09:55:23;;;;;;;;;;;;;;;;;;5048240;28;19946;-59
2022/09/02 09:57:49;;;;;;;;;;;;;;;;;;5048422;28;19908;-59
2022/09/02 10:00:16;;;;;;;;;;;;;;;;;;5048775;28;20024;-60
2022/09/02 10:02:42;;;;;;;;;;;;;;;;;;5048789;28;20074;-59
2022/09/02 10:05:08;;;;;;;;;;;;;;;;;;5048458;28;20567;-59
2022/09/02 10:07:34;;;;;;;;;;;;;;;;;;5046778;28;19943;-59
2022/09/02 10:10:00;;;;;;;;;;;;;;;;;;5047767;28;19912;-59
2022/09/02 10:12:25;;;;;;;;;;;;;;;;;;5048240;28;20386;-60
2022/09/02 10:14:53;;;;;;;;;;;;;;;;;;5046999;28;19916;-59
2022/09/02 10:17:19;;;;;;;;;;;;;;;;;;5048179;28;19972;-58
2022/09/02 10:19:45;;;;;;;;;;;;;;;;;;5046542;28;19917;-58
2022/09/02 10:22:11;;;;;;;;;;;;;;;;;;5048172;28;19999;-58
2022/09/02 10:24:37;;;;;;;;;;;;;;;;;;5047253;28;19998;-58
2022/09/02 10:27:03;;;;;;;;;;;;;;;;;;5046361;28;19960;-58
2022/09/02 10:29:29;;;;;;;;;;;;;;;;;;5047725;28;20379;-57
2022/09/02 10:31:55;;;;;;;;;;;;;;;;;;5028683;28;19936;-58
2022/09/02 10:34:21;;;;;;;;;;;;;;;;;;5047618;28;19970;-58
2022/09/02 10:36:47;;;;;;;;;;;;;;;;;;5046548;28;19971;-58
2022/09/02 10:39:12;;;;;;;;;;;;;;;;;;5047137;28;19982;-58
2022/09/02 10:41:41;;;;;;;;;;;;;;;;;;5046268;28;19917;-58
2022/09/02 10:44:07;;;;;;;;;;;;;;;;;;5029124;28;19928;-58
2022/09/02 10:46:33;;;;;;;;;;;;;;;;;;5047099;28;20101;-58
2022/09/02 10:49:00;;;;;;;;;;;;;;;;;;5047435;28;20331;-59
2022/09/02 10:51:26;;;;;;;;;;;;;;;;;;5046204;28;19931;-60
2022/09/02 10:53:52;;;;;;;;;;;;;;;;;;5045909;28;19913;-60
2022/09/02 10:56:18;;;;;;;;;;;;;;;;;;5044783;28;20036;-59
2022/09/02 10:58:43;;;;;;;;;;;;;;;;;;5045686;28;19925;-59
2022/09/02 11:01:09;;;;;;;;;;;;;;;;;;5047368;28;19917;-58
2022/09/02 11:03:35;;;;;;;;;;;;;;;;;;5045584;28;19909;-59
2022/09/02 11:06:03;;;;;;;;;;;;;;;;;;5046788;28;19960;-59
2022/09/02 11:08:29;;;;;;;;;;;;;;;;;;5046810;28;19916;-59
2022/09/02 11:10:55;;;;;;;;;;;;;;;;;;5045458;28;19920;-61
2022/09/02 11:13:23;;;;;;;;;;;;;;;;;;5047216;28;19915;-60
2022/09/02 11:15:49;;;;;;;;;;;;;;;;;;5046179;28;20298;-59
2022/09/02 11:18:16;;;;;;;;;;;;;;;;;;5046755;28;20007;-59
2022/09/02 11:20:42;;;;;;;;;;;;;;;;;;5045481;28;19919;-59
2022/09/02 11:23:08;;;;;;;;;;;;;;;;;;5043734;28;19917;-59
2022/09/02 11:25:34;;;;;;;;;;;;;;;;;;5043895;28;19920;-59
2022/09/02 11:27:59;;;;;;;;;;;;;;;;;;5045582;28;19913;-59
2022/09/02 11:30:26;;;;;;;;;;;;;;;;;;5046426;28;19971;-59
2022/09/02 11:32:52;;;;;;;;;;;;;;;;;;5044661;28;19948;-59
2022/09/02 11:35:17;;;;;;;;;;;;;;;;;;5042191;28;19948;-59
2022/09/02 11:37:44;;;;;;;;;;;;;;;;;;5041611;28;19955;-59
2022/09/02 11:40:11;;;;;;;;;;;;;;;;;;5044496;28;19917;-60
2022/09/02 11:42:37;;;;;;;;;;;;;;;;;;5043145;28;20430;-59
2022/09/02 11:45:04;;;;;;;;;;;;;;;;;;5045843;28;19917;-62
2022/09/02 11:47:30;;;;;;;;;;;;;;;;;;5045153;28;19909;-59
2022/09/02 11:49:56;;;;;;;;;;;;;;;;;;5044390;28;20399;-59
2022/09/02 11:52:22;;;;;;;;;;;;;;;;;;5046492;28;19912;-58
2022/09/02 11:54:48;;;;;;;;;;;;;;;;;;5042925;28;19920;-58
2022/09/02 11:57:14;;;;;;;;;;;;;;;;;;5046162;28;19963;-59
2022/09/02 11:59:41;;;;;;;;;;;;;;;;;;5047031;28;20287;-58
2022/09/02 12:02:08;;;;;;;;;;;;;;;;;;5045726;28;19909;-58
2022/09/02 12:04:33;;;;;;;;;;;;;;;;;;5044057;28;20001;-58
2022/09/02 12:06:59;;;;;;;;;;;;;;;;;;5043379;28;20071;-59
2022/09/02 12:09:25;;;;;;;;;;;;;;;;;;5044132;28;19909;-59
2022/09/02 12:11:53;;;;;;;;;;;;;;;;;;5043901;28;19920;-59
2022/09/02 12:14:19;;;;;;;;;;;;;;;;;;5044786;28;19920;-59
2022/09/02 12:16:45;;;;;;;;;;;;;;;;;;5044527;28;20372;-59
2022/09/02 12:19:12;;;;;;;;;;;;;;;;;;5045318;28;19952;-58
2022/09/02 12:21:38;;;;;;;;;;;;;;;;;;5043577;28;19913;-58
2022/09/02 12:24:04;;;;;;;;;;;;;;;;;;5044633;28;19921;-58
2022/09/02 12:26:29;;;;;;;;;;;;;;;;;;5044531;28;19920;-58
2022/09/02 12:28:56;;;;;;;;;;;;;;;;;;5044770;28;19909;-59
2022/09/02 12:31:23;;;;;;;;;;;;;;;;;;5043456;28;19916;-58
2022/09/02 12:33:50;;;;;;;;;;;;;;;;;;5042519;28;19943;-58
2022/09/02 12:36:16;;;;;;;;;;;;;;;;;;5044645;28;20427;-58
2022/09/02 12:38:42;;;;;;;;;;;;;;;;;;5026114;28;19913;-59
2022/09/02 12:41:11;;;;;;;;;;;;;;;;;;5035500;28;20477;-58
2022/09/02 12:43:40;;;;;;;;;;;;;;;;;;5040857;28;20011;-59
2022/09/02 12:46:07;;;;;;;;;;;;;;;;;;5045071;28;19955;-58
2022/09/02 12:48:33;;;;;;;;;;;;;;;;;;5044019;28;20285;-59
2022/09/02 12:50:59;;;;;;;;;;;;;;;;;;5044433;28;19917;-58
2022/09/02 12:53:25;;;;;;;;;;;;;;;;;;5043698;28;20003;-59
2022/09/02 12:55:51;;;;;;;;;;;;;;;;;;5047773;28;19908;-59
2022/09/02 12:58:16;;;;;;;;;;;;;;;;;;5047276;28;19912;-59
2022/09/02 13:00:45;;;;;;;;;;;;;;;;;;5047722;28;19917;-59
2022/09/02 13:03:11;;;;;;;;;;;;;;;;;;5047753;28;19990;-58
2022/09/02 13:05:37;;;;;;;;;;;;;;;;;;5048056;28;20383;-59
2022/09/02 13:08:03;;;;;;;;;;;;;;;;;;5047764;28;20411;-61
2022/09/02 13:10:29;;;;;;;;;;;;;;;;;;5047679;28;19974;-61
2022/09/02 13:12:55;;;;;;;;;;;;;;;;;;5046796;28;19924;-61
2022/09/02 13:15:21;;;;;;;;;;;;;;;;;;5047719;28;19909;-61
2022/09/02 13:17:47;;;;;;;;;;;;;;;;;;5047484;28;19947;-61
2022/09/02 13:20:13;;;;;;;;;;;;;;;;;;5046868;28;19948;-61
2022/09/02 13:22:39;;;;;;;;;;;;;;;;;;5047551;28;19925;-60
2022/09/02 13:25:05;;;;;;;;;;;;;;;;;;5047472;28;19913;-61
2022/09/02 13:27:32;;;;;;;;;;;;;;;;;;5047227;28;19909;-60
2022/09/02 13:29:58;;;;;;;;;;;;;;;;;;5045716;28;19982;-60
2022/09/02 13:32:24;;;;;;;;;;;;;;;;;;5047635;28;20465;-60
2022/09/02 13:34:50;;;;;;;;;;;;;;;;;;5047405;28;19917;-60
2022/09/02 13:37:16;;;;;;;;;;;;;;;;;;5035118;28;19910;-61
2022/09/02 13:39:42;;;;;;;;;;;;;;;;;;5031549;28;19962;-60
2022/09/02 13:42:08;;;;;;;;;;;;;;;;;;5048466;28;19912;-60
2022/09/02 13:44:34;;;;;;;;;;;;;;;;;;5045201;28;20019;-61
2022/09/02 13:47:00;;;;;;;;;;;;;;;;;;5029636;28;19913;-61
2022/09/02 13:49:26;;;;;;;;;;;;;;;;;;5047260;28;19916;-60
2022/09/02 13:51:52;;;;;;;;;;;;;;;;;;5047009;28;19908;-61
2022/09/02 13:54:18;;;;;;;;;;;;;;;;;;5045995;28;20318;-61
2022/09/02 13:56:44;;;;;;;;;;;;;;;;;;5043799;28;20430;-61
2022/09/02 13:59:10;;;;;;;;;;;;;;;;;;5048265;28;19939;-61
2022/09/02 14:01:36;;;;;;;;;;;;;;;;;;5047692;28;19991;-61
2022/09/02 14:04:02;;;;;;;;;;;;;;;;;;5048375;28;20850;-61
2022/09/02 14:06:28;;;;;;;;;;;;;;;;;;5047290;28;19905;-61
2022/09/02 14:08:54;;;;;;;;;;;;;;;;;;5047209;28;19923;-61
2022/09/02 14:11:20;;;;;;;;;;;;;;;;;;5048317;28;19923;-61
2022/09/02 14:13:47;;;;;;;;;;;;;;;;;;5046787;28;19917;-61
2022/09/02 14:16:13;;;;;;;;;;;;;;;;;;5048114;28;19979;-61
2022/09/02 14:18:39;;;;;;;;;;;;;;;;;;5029814;28;20023;-61
2022/09/02 14:21:05;;;;;;;;;;;;;;;;;;5045065;28;19913;-61
2022/09/02 14:23:34;;;;;;;;;;;;;;;;;;5047610;28;19940;-61
2022/09/02 14:26:00;;;;;;;;;;;;;;;;;;5047998;28;19909;-61
2022/09/02 14:28:26;;;;;;;;;;;;;;;;;;5048000;28;19913;-61
2022/09/02 14:30:52;;;;;;;;;;;;;;;;;;5046931;28;19925;-61
2022/09/02 14:33:18;;;;;;;;;;;;;;;;;;5047851;28;20023;-61
2022/09/02 14:35:44;;;;;;;;;;;;;;;;;;5047372;28;19917;-61
2022/09/02 14:38:10;;;;;;;;;;;;;;;;;;5045078;28;19923;-60
2022/09/02 14:40:35;;;;;;;;;;;;;;;;;;5047175;28;19913;-61
2022/09/02 14:43:01;;;;;;;;;;;;;;;;;;5047403;28;19917;-60
2022/09/02 14:45:27;;;;;;;;;;;;;;;;;;5047449;28;19909;-61
2022/09/02 14:47:53;;;;;;;;;;;;;;;;;;5044368;28;19977;-62
2022/09/02 14:50:19;;;;;;;;;;;;;;;;;;5043473;28;20407;-61
2022/09/02 14:52:45;;;;;;;;;;;;;;;;;;5046579;28;19956;-61
2022/09/02 14:55:11;;;;;;;;;;;;;;;;;;5047819;28;19913;-61
2022/09/02 14:57:39;;;;;;;;;;;;;;;;;;5046493;28;19913;-62
2022/09/02 15:00:13;;;;;;;;;;;;;;;;;;5045241;28;20470;-61
2022/09/02 15:02:40;;;;;;;;;;;;;;;;;;5044298;28;19917;-61
2022/09/02 15:05:06;;;;;;;;;;;;;;;;;;5047200;28;19991;-61
2022/09/02 15:07:32;;;;;;;;;;;;;;;;;;5045799;28;20659;-62
2022/09/02 15:09:58;;;;;;;;;;;;;;;;;;5046167;28;19969;-61
2022/09/02 15:12:24;;;;;;;;;;;;;;;;;;5046244;28;20740;-61
2022/09/02 15:14:50;;;;;;;;;;;;;;;;;;5045303;28;19913;-61
2022/09/02 15:17:16;;;;;;;;;;;;;;;;;;5039753;28;19932;-61
2022/09/02 15:19:42;;;;;;;;;;;;;;;;;;5045932;28;20292;-61
2022/09/02 15:22:08;;;;;;;;;;;;;;;;;;5046665;28;19920;-60
2022/09/02 15:24:34;;;;;;;;;;;;;;;;;;5044555;28;19920;-61
2022/09/02 15:27:00;;;;;;;;;;;;;;;;;;5043630;28;19913;-61
2022/09/02 15:29:26;;;;;;;;;;;;;;;;;;5041205;28;19971;-61
2022/09/02 15:31:52;;;;;;;;;;;;;;;;;;5045202;28;19913;-61
2022/09/02 15:34:18;;;;;;;;;;;;;;;;;;5043546;28;19916;-61
2022/09/02 15:36:44;;;;;;;;;;;;;;;;;;5044409;28;20033;-61
2022/09/02 15:39:10;;;;;;;;;;;;;;;;;;5046965;28;19912;-61
2022/09/02 15:41:36;;;;;;;;;;;;;;;;;;5045963;28;20465;-62
2022/09/02 15:44:02;;;;;;;;;;;;;;;;;;5045541;28;20809;-60
2022/09/02 15:46:28;;;;;;;;;;;;;;;;;;5045070;28;19917;-61
2022/09/02 15:48:54;;;;;;;;;;;;;;;;;;5044936;28;19985;-61
2022/09/02 15:51:20;;;;;;;;;;;;;;;;;;5044735;28;19920;-61
2022/09/02 15:53:48;;;;;;;;;;;;;;;;;;5039211;28;20481;-60
2022/09/02 15:56:15;;;;;;;;;;;;;;;;;;5045209;28;20140;-60
2022/09/02 15:58:41;;;;;;;;;;;;;;;;;;5040037;28;19920;-62
2022/09/02 16:01:07;;;;;;;;;;;;;;;;;;5045475;28;19995;-61
2022/09/02 16:03:33;;;;;;;;;;;;;;;;;;5043111;28;19955;-61
2022/09/02 16:05:59;;;;;;;;;;;;;;;;;;5031367;28;19995;-62
2022/09/02 16:08:25;;;;;;;;;;;;;;;;;;5043216;28;19917;-63
2022/09/02 16:10:51;;;;;;;;;;;;;;;;;;5045881;28;19927;-63
2022/09/02 16:13:17;;;;;;;;;;;;;;;;;;5044128;28;19921;-63
2022/09/02 16:15:44;;;;;;;;;;;;;;;;;;5045260;28;20016;-62
2022/09/02 16:18:10;;;;;;;;;;;;;;;;;;5045170;28;20447;-61
2022/09/02 16:20:36;;;;;;;;;;;;;;;;;;5044903;28;20011;-62
2022/09/02 16:23:01;;;;;;;;;;;;;;;;;;5044883;28;19917;-62
2022/09/02 16:25:27;;;;;;;;;;;;;;;;;;5045392;28;20007;-62
2022/09/02 16:27:55;;;;;;;;;;;;;;;;;;5046419;28;19939;-62
2022/09/02 16:30:21;;;;;;;;;;;;;;;;;;5048112;28;19932;-61
2022/09/02 16:32:49;;;;;;;;;;;;;;;;;;5047247;28;20379;-61
2022/09/02 16:35:15;;;;;;;;;;;;;;;;;;5049647;28;19916;-62
2022/09/02 16:37:41;;;;;;;;;;;;;;;;;;5046618;28;20891;-61
2022/09/02 16:40:07;;;;;;;;;;;;;;;;;;5050152;28;19924;-62
2022/09/02 16:42:33;;;;;;;;;;;;;;;;;;5049807;28;20346;-61